Time,TemperatureF,DewpointF,PressureIn,WindDirection,WindDirectionDegrees,WindSpeedMPH,WindSpeedGustMPH,Humidity,HourlyPrecipIn,Conditions,Clouds,dailyrainin,SoftwareType,DateUTC
2013-04-18 00:09:00,75.3,67.0,30.03,ESE,118,4.0,8.0,74,0.00,,,0.00,weatherlink.com 1.10,2013-04-18 04:09:00,
2013-04-18 00:24:00,75.0,67.0,30.03,ESE,107,3.0,9.0,75,0.00,,,0.00,weatherlink.com 1.10,2013-04-18 04:24:00,
2013-04-18 00:40:00,74.7,67.0,30.02,ESE,105,3.0,10.0,76,0.00,,,0.00,weatherlink.com 1.10,2013-04-18 04:40:00,
2013-04-18 00:55:00,74.6,67.0,30.02,ESE,117,4.0,8.0,76,0.00,,,0.00,weatherlink.com 1.10,2013-04-18 04:55:00,
2013-04-18 01:10:00,74.5,67.0,30.02,ESE,117,4.0,9.0,76,0.00,,,0.00,weatherlink.com 1.10,2013-04-18 05:10:00,
2013-04-18 01:25:00,74.0,67.0,30.02,SE,146,4.0,7.0,78,0.00,,,0.00,weatherlink.com 1.10,2013-04-18 05:25:00,
2013-04-18 01:40:00,73.8,67.0,30.01,ESE,111,1.0,8.0,78,0.00,,,0.00,weatherlink.com 1.10,2013-04-18 05:40:00,
2013-04-18 01:56:00,73.5,67.0,29.99,SE,127,3.0,8.0,79,0.00,,,0.00,weatherlink.com 1.10,2013-04-18 05:56:00,
2013-04-18 02:11:00,73.3,67.0,29.99,SE,127,3.0,9.0,80,0.00,,,0.00,weatherlink.com 1.10,2013-04-18 06:11:00,
2013-04-18 02:25:00,73.2,67.0,29.98,ESE,117,4.0,8.0,80,0.00,,,0.00,weatherlink.com 1.10,2013-04-18 06:25:00,
2013-04-18 02:41:00,73.0,67.0,29.98,East,100,2.0,8.0,81,0.00,,,0.00,weatherlink.com 1.10,2013-04-18 06:41:00,
2013-04-18 02:56:00,72.8,67.0,29.98,ESE,123,7.0,8.0,81,0.00,,,0.00,weatherlink.com 1.10,2013-04-18 06:56:00,
2013-04-18 03:11:00,72.5,67.0,29.97,ESE,116,3.0,7.0,82,0.00,,,0.00,weatherlink.com 1.10,2013-04-18 07:11:00,
2013-04-18 03:27:00,72.3,67.0,29.97,ESE,113,4.0,8.0,82,0.00,,,0.00,weatherlink.com 1.10,2013-04-18 07:27:00,
2013-04-18 03:42:00,72.2,67.0,29.97,SSE,161,5.0,8.0,83,0.00,,,0.00,weatherlink.com 1.10,2013-04-18 07:42:00,
2013-04-18 03:57:00,72.1,66.0,29.97,SE,124,3.0,8.0,82,0.00,,,0.00,weatherlink.com 1.10,2013-04-18 07:57:00,
2013-04-18 04:12:00,72.0,67.0,29.97,ESE,119,3.0,8.0,83,0.00,,,0.00,weatherlink.com 1.10,2013-04-18 08:12:00,
2013-04-18 04:27:00,71.9,67.0,29.97,ESE,109,4.0,8.0,84,0.00,,,0.00,weatherlink.com 1.10,2013-04-18 08:27:00,
2013-04-18 04:42:00,72.1,67.0,29.97,ESE,117,3.0,8.0,83,0.00,,,0.00,weatherlink.com 1.10,2013-04-18 08:42:00,
2013-04-18 04:57:00,72.2,67.0,29.97,ESE,105,4.0,8.0,84,0.00,,,0.00,weatherlink.com 1.10,2013-04-18 08:57:00,
2013-04-18 05:12:00,72.1,67.0,29.97,SE,128,1.0,5.0,84,0.00,,,0.00,weatherlink.com 1.10,2013-04-18 09:12:00,
2013-04-18 05:28:00,72.0,67.0,29.97,ESE,111,4.0,8.0,84,0.00,,,0.00,weatherlink.com 1.10,2013-04-18 09:28:00,
2013-04-18 05:43:00,71.9,67.0,29.98,SE,127,1.0,6.0,84,0.00,,,0.00,weatherlink.com 1.10,2013-04-18 09:43:00,
2013-04-18 05:57:00,71.7,67.0,29.98,East,84,1.0,5.0,85,0.00,,,0.00,weatherlink.com 1.10,2013-04-18 09:57:00,
2013-04-18 06:12:00,71.6,67.0,29.98,SE,128,3.0,4.0,85,0.00,,,0.00,weatherlink.com 1.10,2013-04-18 10:12:00,
2013-04-18 06:27:00,71.7,67.0,29.99,ESE,107,1.0,4.0,86,0.00,,,0.00,weatherlink.com 1.10,2013-04-18 10:27:00,
2013-04-18 06:42:00,71.6,67.0,29.99,ESE,107,1.0,3.0,86,0.00,,,0.00,weatherlink.com 1.10,2013-04-18 10:42:00,
2013-04-18 06:57:00,71.5,67.0,30.00,ESE,107,0.0,4.0,86,0.00,,,0.00,weatherlink.com 1.10,2013-04-18 10:57:00,
2013-04-18 07:12:00,71.6,67.0,30.00,East,92,1.0,5.0,86,0.00,,,0.00,weatherlink.com 1.10,2013-04-18 11:12:00,
2013-04-18 07:28:00,71.6,67.0,30.01,East,88,1.0,6.0,86,0.00,,,0.00,weatherlink.com 1.10,2013-04-18 11:28:00,
2013-04-18 07:43:00,71.8,68.0,30.01,East,93,2.0,6.0,87,0.00,,,0.00,weatherlink.com 1.10,2013-04-18 11:43:00,
2013-04-18 07:58:00,71.9,68.0,30.02,East,100,5.0,5.0,86,0.00,,,0.00,weatherlink.com 1.10,2013-04-18 11:58:00,
2013-04-18 08:14:00,72.2,68.0,30.02,East,96,6.0,6.0,86,0.00,,,0.00,weatherlink.com 1.10,2013-04-18 12:14:00,
2013-04-18 08:29:00,73.1,68.0,30.02,ENE,61,1.0,5.0,85,0.00,,,0.00,weatherlink.com 1.10,2013-04-18 12:29:00,
2013-04-18 08:44:00,74.2,69.0,30.02,SE,141,3.0,7.0,84,0.00,,,0.00,weatherlink.com 1.10,2013-04-18 12:44:00,
2013-04-18 08:58:00,75.4,70.0,30.02,SE,130,3.0,6.0,83,0.00,,,0.00,weatherlink.com 1.10,2013-04-18 12:58:00,
2013-04-18 09:13:00,75.8,70.0,30.02,ESE,105,5.0,8.0,81,0.00,,,0.00,weatherlink.com 1.10,2013-04-18 13:13:00,
2013-04-18 09:29:00,77.2,71.0,30.02,SE,132,6.0,9.0,80,0.00,,,0.00,weatherlink.com 1.10,2013-04-18 13:29:00,
2013-04-18 09:44:00,77.2,71.0,30.02,SE,139,3.0,7.0,80,0.00,,,0.00,weatherlink.com 1.10,2013-04-18 13:44:00,
2013-04-18 09:59:00,78.4,71.0,30.02,SE,140,5.0,8.0,78,0.00,,,0.00,weatherlink.com 1.10,2013-04-18 13:59:00,
2013-04-18 10:14:00,79.4,71.0,30.02,SE,140,5.0,9.0,76,0.00,,,0.00,weatherlink.com 1.10,2013-04-18 14:14:00,
2013-04-18 10:29:00,80.9,71.0,30.02,SE,143,2.0,8.0,72,0.00,,,0.00,weatherlink.com 1.10,2013-04-18 14:29:00,
2013-04-18 10:45:00,81.0,71.0,30.02,SE,137,3.0,7.0,72,0.00,,,0.00,weatherlink.com 1.10,2013-04-18 14:45:00,
2013-04-18 11:00:00,82.1,71.0,30.01,SE,131,3.0,7.0,68,0.00,,,0.00,weatherlink.com 1.10,2013-04-18 15:00:00,
2013-04-18 11:16:00,83.2,71.0,30.01,SSE,165,2.0,8.0,66,0.00,,,0.00,weatherlink.com 1.10,2013-04-18 15:16:00,
2013-04-18 11:31:00,84.0,71.0,30.01,SSE,159,3.0,6.0,66,0.00,,,0.00,weatherlink.com 1.10,2013-04-18 15:31:00,
2013-04-18 11:46:00,85.0,72.0,30.00,South,175,2.0,5.0,66,0.00,,,0.00,weatherlink.com 1.10,2013-04-18 15:46:00,
2013-04-18 12:02:00,84.7,72.0,29.99,South,171,1.0,8.0,65,0.00,,,0.00,weatherlink.com 1.10,2013-04-18 16:02:00,
2013-04-18 12:17:00,84.9,72.0,29.98,South,170,1.0,4.0,65,0.00,,,0.00,weatherlink.com 1.10,2013-04-18 16:17:00,
2013-04-18 12:31:00,85.7,74.0,29.99,SSW,213,1.0,3.0,68,0.00,,,0.00,weatherlink.com 1.10,2013-04-18 16:31:00,
2013-04-18 12:46:00,88.6,74.0,29.98,WSW,239,3.0,6.0,63,0.00,,,0.00,weatherlink.com 1.10,2013-04-18 16:46:00,
2013-04-18 13:01:00,88.6,74.0,29.99,WSW,243,1.0,7.0,63,0.00,,,0.00,weatherlink.com 1.10,2013-04-18 17:01:00,
2013-04-18 13:16:00,88.2,75.0,29.98,WSW,253,3.0,7.0,65,0.00,,,0.00,weatherlink.com 1.10,2013-04-18 17:16:00,
2013-04-18 13:31:00,87.6,74.0,29.98,WSW,249,3.0,6.0,65,0.00,,,0.00,weatherlink.com 1.10,2013-04-18 17:31:00,
2013-04-18 13:47:00,87.7,75.0,29.97,South,182,2.0,6.0,66,0.00,,,0.00,weatherlink.com 1.10,2013-04-18 17:47:00,
2013-04-18 14:02:00,86.9,76.0,29.97,WSW,252,2.0,8.0,69,0.00,,,0.00,weatherlink.com 1.10,2013-04-18 18:02:00,
2013-04-18 14:16:00,86.9,75.0,29.96,WSW,239,1.0,8.0,68,0.00,,,0.00,weatherlink.com 1.10,2013-04-18 18:16:00,
2013-04-18 14:32:00,86.2,76.0,29.96,SW,235,1.0,7.0,71,0.00,,,0.00,weatherlink.com 1.10,2013-04-18 18:32:00,
2013-04-18 14:46:00,86.7,76.0,29.95,WSW,237,3.0,8.0,70,0.00,,,0.00,weatherlink.com 1.10,2013-04-18 18:46:00,
2013-04-18 15:01:00,86.4,76.0,29.95,SW,226,1.0,7.0,71,0.00,,,0.00,weatherlink.com 1.10,2013-04-18 19:01:00,
2013-04-18 15:17:00,86.3,76.0,29.95,WSW,258,4.0,9.0,72,0.00,,,0.00,weatherlink.com 1.10,2013-04-18 19:17:00,
2013-04-18 15:32:00,85.2,76.0,29.94,SW,234,2.0,9.0,73,0.00,,,0.00,weatherlink.com 1.10,2013-04-18 19:32:00,
2013-04-18 15:47:00,84.8,76.0,29.94,West,261,3.0,7.0,74,0.00,,,0.00,weatherlink.com 1.10,2013-04-18 19:47:00,
2013-04-18 16:02:00,84.1,76.0,29.93,SW,232,2.0,6.0,76,0.00,,,0.00,weatherlink.com 1.10,2013-04-18 20:02:00,
2013-04-18 16:17:00,82.9,76.0,29.93,SW,232,2.0,5.0,79,0.00,,,0.00,weatherlink.com 1.10,2013-04-18 20:17:00,
2013-04-18 16:32:00,82.6,76.0,29.93,South,172,2.0,10.0,79,0.00,,,0.00,weatherlink.com 1.10,2013-04-18 20:32:00,
2013-04-18 16:47:00,81.9,74.0,29.93,SSE,161,6.0,9.0,78,0.00,,,0.00,weatherlink.com 1.10,2013-04-18 20:47:00,
2013-04-18 17:03:00,81.2,74.0,29.93,SSE,156,4.0,9.0,79,0.00,,,0.00,weatherlink.com 1.10,2013-04-18 21:03:00,
2013-04-18 17:18:00,81.0,74.0,29.93,SE,138,7.0,10.0,79,0.00,,,0.00,weatherlink.com 1.10,2013-04-18 21:18:00,
2013-04-18 17:33:00,81.0,74.0,29.93,SSE,158,5.0,11.0,80,0.00,,,0.00,weatherlink.com 1.10,2013-04-18 21:33:00,
2013-04-18 17:49:00,80.8,74.0,29.93,SSE,158,6.0,9.0,80,0.00,,,0.00,weatherlink.com 1.10,2013-04-18 21:49:00,
2013-04-18 18:04:00,80.8,75.0,29.93,SSE,154,4.0,6.0,81,0.00,,,0.00,weatherlink.com 1.10,2013-04-18 22:04:00,
2013-04-18 18:19:00,80.9,75.0,29.93,South,171,2.0,4.0,81,0.00,,,0.00,weatherlink.com 1.10,2013-04-18 22:19:00,
2013-04-18 18:34:00,80.8,75.0,29.92,SSE,163,0.0,4.0,82,0.00,,,0.00,weatherlink.com 1.10,2013-04-18 22:34:00,
2013-04-18 18:49:00,80.4,75.0,29.92,SSE,154,3.0,6.0,82,0.00,,,0.00,weatherlink.com 1.10,2013-04-18 22:49:00,
2013-04-18 19:04:00,80.1,75.0,29.92,SSE,158,1.0,6.0,83,0.00,,,0.00,weatherlink.com 1.10,2013-04-18 23:04:00,
2013-04-18 19:18:00,79.9,74.0,29.93,South,174,3.0,6.0,83,0.00,,,0.00,weatherlink.com 1.10,2013-04-18 23:18:00,
2013-04-18 19:33:00,79.7,74.0,29.93,SSE,160,1.0,5.0,83,0.00,,,0.00,weatherlink.com 1.10,2013-04-18 23:33:00,
2013-04-18 19:48:00,79.5,74.0,29.93,SSE,163,2.0,5.0,84,0.00,,,0.00,weatherlink.com 1.10,2013-04-18 23:48:00,
2013-04-18 20:04:00,79.3,75.0,29.93,South,175,3.0,6.0,85,0.00,,,0.00,weatherlink.com 1.10,2013-04-19 00:04:00,
2013-04-18 20:19:00,79.2,74.0,29.94,South,182,4.0,7.0,85,0.00,,,0.00,weatherlink.com 1.10,2013-04-19 00:19:00,
2013-04-18 20:35:00,79.1,75.0,29.94,SSE,158,1.0,5.0,86,0.00,,,0.00,weatherlink.com 1.10,2013-04-19 00:35:00,
2013-04-18 20:50:00,78.9,75.0,29.95,South,175,2.0,6.0,87,0.00,,,0.00,weatherlink.com 1.10,2013-04-19 00:50:00,
2013-04-18 21:04:00,78.9,75.0,29.96,SSE,163,4.0,5.0,87,0.00,,,0.00,weatherlink.com 1.10,2013-04-19 01:04:00,
2013-04-18 21:19:00,79.0,75.0,29.96,SSE,150,2.0,6.0,87,0.00,,,0.00,weatherlink.com 1.10,2013-04-19 01:19:00,
2013-04-18 21:34:00,79.2,75.0,29.96,South,169,2.0,5.0,88,0.00,,,0.00,weatherlink.com 1.10,2013-04-19 01:34:00,
2013-04-18 21:49:00,79.8,74.0,29.97,SE,140,3.0,8.0,82,0.00,,,0.00,weatherlink.com 1.10,2013-04-19 01:49:00,
2013-04-18 22:04:00,79.1,73.0,29.98,SE,126,3.0,5.0,82,0.00,,,0.00,weatherlink.com 1.10,2013-04-19 02:04:00,
2013-04-18 22:19:00,79.2,73.0,29.98,SE,131,2.0,4.0,80,0.00,,,0.00,weatherlink.com 1.10,2013-04-19 02:19:00,
2013-04-18 22:35:00,79.5,72.0,29.98,SSE,148,4.0,10.0,77,0.00,,,0.00,weatherlink.com 1.10,2013-04-19 02:35:00,
2013-04-18 22:50:00,79.3,72.0,29.99,SSE,148,3.0,7.0,78,0.00,,,0.00,weatherlink.com 1.10,2013-04-19 02:50:00,
2013-04-18 23:05:00,78.8,72.0,29.99,SE,141,4.0,6.0,79,0.00,,,0.00,weatherlink.com 1.10,2013-04-19 03:05:00,
2013-04-18 23:20:00,78.4,71.0,29.99,SSE,152,3.0,8.0,79,0.00,,,0.00,weatherlink.com 1.10,2013-04-19 03:20:00,
2013-04-18 23:35:00,77.9,71.0,29.99,SSE,160,3.0,9.0,80,0.00,,,0.00,weatherlink.com 1.10,2013-04-19 03:35:00,
2013-04-18 23:50:00,77.7,71.0,29.99,SE,139,4.0,7.0,81,0.00,,,0.00,weatherlink.com 1.10,2013-04-19 03:50:00,